createdAt,value
2018-04-16T00:01:59.727Z,76.00
2018-04-16T00:04:01.573Z,75.62
2018-04-16T00:06:03.204Z,74.76
2018-04-16T00:08:04.981Z,75.52
2018-04-16T00:10:06.711Z,75.81
2018-04-16T00:12:08.554Z,76.44
2018-04-16T00:14:10.297Z,76.54
2018-04-16T00:16:12.455Z,76.25
2018-04-16T00:18:14.112Z,76.35
2018-04-16T00:20:15.843Z,76.64
2018-04-16T00:22:17.454Z,76.54
2018-04-16T00:24:19.240Z,76.64
2018-04-16T00:26:20.864Z,75.87
2018-04-16T00:28:22.517Z,76.06
2018-04-16T00:30:24.218Z,75.87
2018-04-16T00:32:25.880Z,76.35
2018-04-16T00:34:27.555Z,77.02
2018-04-16T00:36:29.292Z,77.21
2018-04-16T00:38:31.028Z,76.64
2018-04-16T00:40:32.892Z,76.54
2018-04-16T00:42:34.544Z,77.31
2018-04-16T00:44:36.354Z,77.31
2018-04-16T00:46:38.151Z,77.21
2018-04-16T00:48:39.714Z,77.31
2018-04-16T00:50:41.393Z,77.21
2018-04-16T00:52:43.724Z,77.31
2018-04-16T00:54:45.350Z,77.94
2018-04-16T00:56:46.945Z,77.17
2018-04-16T00:58:48.566Z,77.55
2018-04-16T01:00:50.374Z,76.98
2018-04-16T01:02:52.136Z,77.36
2018-04-16T01:04:53.967Z,77.65
2018-04-16T01:06:55.719Z,77.36
2018-04-16T01:08:57.359Z,77.55
2018-04-16T01:10:59.032Z,77.75
2018-04-16T01:13:00.707Z,78.03
2018-04-16T01:15:02.557Z,78.22
2018-04-16T01:17:04.144Z,77.08
2018-04-16T01:19:05.763Z,77.26
2018-04-16T01:21:07.509Z,77.46
2018-04-16T01:23:09.160Z,77.94
2018-04-16T01:25:10.994Z,78.13
2018-04-16T01:27:12.809Z,78.03
2018-04-16T01:29:14.552Z,78.03
2018-04-16T01:31:16.361Z,78.80
2018-04-16T01:33:18.061Z,78.70
2018-04-16T01:35:19.886Z,78.99
2018-04-16T01:37:21.569Z,78.86
2018-04-16T01:39:23.346Z,78.86
2018-04-16T01:41:24.986Z,78.38
2018-04-16T01:43:26.835Z,78.95
2018-04-16T01:45:28.650Z,78.76
2018-04-16T01:47:30.300Z,78.95
2018-04-16T01:49:31.939Z,78.86
2018-04-16T01:51:33.535Z,78.47
2018-04-16T01:53:35.352Z,78.95
2018-04-16T01:55:37.177Z,78.09
2018-04-16T01:57:39.036Z,78.28
2018-04-16T01:59:40.820Z,78.86
2018-04-16T02:01:42.656Z,78.38
2018-04-16T02:03:44.420Z,78.09
2018-04-16T02:05:46.081Z,78.38
2018-04-16T02:07:47.707Z,78.28
2018-04-16T02:09:49.457Z,77.61
2018-04-16T02:11:51.183Z,78.19
2018-04-16T02:13:52.779Z,77.61
2018-04-16T02:15:54.677Z,77.99
2018-04-16T02:17:56.302Z,77.80
2018-04-16T02:19:57.920Z,78.76
2018-04-16T02:21:59.642Z,78.95
2018-04-16T02:24:01.478Z,78.66
2018-04-16T02:26:03.276Z,78.66
2018-04-16T02:28:04.976Z,78.76
2018-04-16T02:30:06.678Z,78.91
2018-04-16T02:32:08.234Z,78.95
2018-04-16T02:34:09.830Z,78.14
2018-04-16T02:36:11.481Z,78.53
2018-04-16T02:38:13.322Z,79.29
2018-04-16T02:40:15.016Z,79.10
2018-04-16T02:42:16.751Z,79.20
2018-04-16T02:44:18.604Z,78.91
2018-04-16T02:46:20.368Z,77.86
2018-04-16T02:48:22.175Z,78.91
2018-04-16T02:50:23.851Z,78.63
2018-04-16T02:52:25.418Z,78.53
2018-04-16T02:54:27.107Z,78.72
2018-04-16T02:56:28.824Z,78.53
2018-04-16T02:58:30.694Z,78.81
2018-04-16T03:00:32.456Z,78.81
2018-04-16T03:02:34.199Z,78.91
2018-04-16T03:04:35.867Z,79.00
2018-04-16T03:06:37.501Z,78.91
2018-04-16T03:08:39.174Z,78.81
2018-04-16T03:10:40.695Z,78.72
2018-04-16T03:12:42.221Z,78.63
2018-04-16T03:14:43.979Z,79.10
2018-04-16T03:16:45.713Z,78.72
2018-04-16T03:18:47.366Z,78.24
2018-04-16T03:20:49.064Z,79.25
2018-04-16T03:22:50.776Z,79.29
2018-04-16T03:24:52.593Z,79.58
2018-04-16T03:26:54.300Z,79.39
2018-04-16T03:28:56.047Z,79.68
2018-04-16T03:30:57.660Z,79.16
2018-04-16T03:32:59.242Z,79.00
2018-04-16T03:35:00.962Z,78.68
2018-04-16T03:37:02.609Z,79.10
2018-04-16T03:39:04.307Z,78.97
2018-04-16T03:41:06.083Z,79.35
2018-04-16T03:43:07.847Z,79.64
2018-04-16T03:45:09.525Z,80.02
2018-04-16T03:47:11.319Z,79.93
2018-04-16T03:49:13.085Z,79.35
2018-04-16T03:51:14.861Z,79.25
2018-04-16T03:53:16.626Z,79.93
2018-04-16T03:55:18.303Z,79.93
2018-04-16T03:57:19.952Z,79.83
2018-04-16T03:59:21.751Z,79.25
2018-04-16T04:01:23.428Z,78.78
2018-04-16T04:03:25.062Z,79.25
2018-04-16T04:05:26.733Z,79.35
2018-04-16T04:07:28.473Z,80.11
2018-04-16T04:09:30.112Z,79.83
2018-04-16T04:11:31.955Z,79.54
2018-04-16T04:13:33.775Z,79.83
2018-04-16T04:15:35.534Z,79.16
2018-04-16T04:17:37.407Z,80.02
2018-04-16T04:19:39.226Z,79.83
2018-04-16T04:21:40.871Z,79.83
2018-04-16T04:23:42.656Z,80.02
2018-04-16T04:25:44.344Z,79.83
2018-04-16T04:27:46.109Z,80.69
2018-04-16T04:29:47.766Z,80.02
2018-04-16T04:31:49.438Z,80.55
2018-04-16T04:33:51.143Z,80.27
2018-04-16T04:35:52.909Z,80.84
2018-04-16T04:37:54.625Z,81.13
2018-04-16T04:39:56.393Z,81.32
2018-04-16T04:41:58.022Z,80.93
2018-04-16T04:43:59.664Z,81.89
2018-04-16T04:46:01.330Z,81.70
2018-04-16T04:48:02.912Z,81.60
2018-04-16T04:50:04.722Z,82.08
2018-04-16T04:52:06.444Z,82.37
2018-04-16T04:54:08.220Z,82.28
2018-04-16T04:56:10.064Z,82.28
2018-04-16T04:58:12.588Z,82.08
2018-04-16T05:00:14.394Z,82.28
2018-04-16T05:02:16.014Z,81.79
2018-04-16T05:04:17.838Z,81.65
2018-04-16T05:06:19.547Z,81.36
2018-04-16T05:08:21.210Z,82.37
2018-04-16T05:10:22.920Z,82.94
2018-04-16T05:12:24.790Z,84.66
2018-04-16T05:14:26.417Z,83.90
2018-04-16T05:16:28.036Z,84.03
2018-04-16T05:18:29.819Z,83.61
2018-04-16T05:20:31.394Z,83.80
2018-04-16T05:22:33.146Z,84.61
2018-04-16T05:24:34.847Z,83.84
2018-04-16T05:26:36.461Z,83.84
2018-04-16T05:28:38.021Z,84.66
2018-04-16T05:30:39.670Z,85.52
2018-04-16T05:32:41.318Z,86.38
2018-04-16T05:34:43.053Z,87.53
2018-04-16T05:36:44.868Z,87.72
2018-04-16T05:38:46.593Z,88.01
2018-04-16T05:40:48.277Z,87.43
2018-04-16T05:42:49.995Z,88.20
2018-04-16T05:44:51.682Z,87.72
2018-04-16T05:46:53.423Z,87.82
2018-04-16T05:48:55.107Z,88.10
2018-04-16T05:50:56.762Z,87.91
2018-04-16T05:52:58.485Z,88.29
2018-04-16T05:55:00.289Z,88.77
2018-04-16T05:57:01.907Z,89.06
2018-04-16T05:59:03.629Z,88.77
2018-04-16T06:01:05.398Z,88.77
2018-04-16T06:03:07.200Z,88.05
2018-04-16T06:05:08.958Z,87.66
2018-04-16T06:07:10.821Z,86.33
2018-04-16T06:09:12.699Z,86.66
2018-04-16T06:11:14.402Z,85.71
2018-04-16T06:13:16.194Z,84.75
2018-04-16T06:15:17.845Z,85.41
2018-04-16T06:17:19.709Z,84.88
2018-04-16T06:19:21.498Z,84.02
2018-04-16T06:21:23.139Z,83.45
2018-04-16T06:23:24.923Z,83.45
2018-04-16T06:25:26.606Z,82.59
2018-04-16T06:27:28.355Z,83.20
2018-04-16T06:29:31.061Z,80.94
2018-04-16T06:31:32.925Z,79.30
2018-04-16T06:33:34.680Z,74.83
2018-04-16T08:14:18.217Z,73.97
2018-04-16T08:16:19.992Z,73.43
2018-04-16T08:18:21.567Z,73.14
2018-04-16T08:20:23.259Z,73.33
2018-04-16T08:22:25.043Z,72.05
2018-04-16T08:24:26.827Z,73.68
2018-04-16T08:26:28.839Z,74.06
2018-04-16T08:28:30.691Z,73.97
2018-04-16T08:30:32.705Z,74.10
2018-04-16T08:32:34.776Z,73.62
2018-04-16T08:34:36.762Z,73.33
2018-04-16T08:36:38.652Z,72.08
2018-04-16T08:38:40.498Z,73.37
2018-04-16T08:40:42.367Z,71.58
2018-04-16T08:42:44.491Z,68.89
2018-04-16T08:44:46.316Z,68.70
2018-04-16T08:46:48.191Z,68.60
2018-04-16T08:48:50.112Z,68.15
2018-04-16T08:50:51.726Z,67.77
2018-04-16T08:52:53.438Z,66.61
2018-04-16T08:54:55.468Z,65.56
2018-04-16T08:56:57.276Z,66.49
2018-04-16T08:58:58.965Z,67.35
2018-04-16T09:01:01.870Z,67.54
2018-04-16T09:03:03.683Z,67.77
2018-04-16T09:05:05.490Z,65.94
2018-04-16T09:07:07.315Z,65.66
2018-04-16T09:09:09.573Z,66.14
2018-04-16T09:11:11.543Z,67.38
2018-04-16T09:13:13.437Z,65.33
2018-04-16T09:15:15.486Z,67.25
2018-04-16T09:17:17.343Z,68.89
2018-04-16T09:19:19.213Z,68.15
2018-04-16T09:21:21.058Z,66.81
2018-04-16T09:23:22.911Z,66.61
2018-04-16T09:25:24.808Z,67.48
2018-04-16T09:27:26.868Z,66.84
2018-04-16T09:29:28.772Z,64.82
2018-04-16T09:31:30.722Z,65.01
2018-04-16T09:33:32.627Z,62.74
2018-04-16T09:35:34.368Z,63.02
2018-04-16T09:37:36.354Z,61.97
2018-04-16T09:39:38.187Z,61.84
2018-04-16T09:41:40.025Z,63.09
2018-04-16T09:43:41.807Z,62.45
2018-04-16T09:45:43.651Z,61.80
2018-04-16T09:47:45.481Z,61.22
2018-04-16T09:49:47.373Z,62.57
2018-04-16T09:51:49.236Z,61.80
2018-04-16T09:53:51.194Z,61.90
2018-04-16T09:55:52.987Z,59.30
2018-04-16T09:57:55.004Z,58.79
2018-04-16T09:59:56.904Z,61.68
2018-04-16T10:01:58.823Z,60.21
2018-04-16T10:04:00.755Z,60.69
2018-04-16T10:06:02.819Z,62.06
2018-04-16T10:08:04.805Z,62.26
2018-04-16T10:10:06.765Z,61.68
2018-04-16T10:12:08.549Z,62.77
2018-04-16T10:14:10.607Z,61.32
2018-04-16T10:16:12.423Z,60.94
2018-04-16T10:18:14.594Z,59.40
2018-04-16T10:20:16.544Z,59.56
2018-04-16T10:22:18.492Z,60.78
2018-04-16T10:24:20.293Z,62.61
2018-04-16T10:26:22.161Z,63.22
2018-04-16T10:28:23.997Z,63.06
2018-04-16T10:30:25.917Z,62.51
2018-04-16T10:32:27.866Z,61.00
2018-04-16T10:34:29.936Z,57.05
2018-04-16T10:36:31.786Z,59.84
2018-04-16T10:38:33.726Z,55.38
2018-04-16T10:40:35.737Z,56.09
2018-04-16T10:42:37.617Z,56.18
2018-04-16T10:44:39.476Z,55.51
2018-04-16T10:46:41.427Z,55.48
2018-04-16T10:48:43.423Z,58.44
2018-04-16T10:50:45.313Z,59.37
2018-04-16T10:52:47.050Z,60.62
2018-04-16T10:54:48.940Z,60.81
2018-04-16T10:56:51.000Z,59.56
2018-04-16T10:58:53.085Z,55.04
2018-04-16T11:00:55.124Z,56.65
2018-04-16T11:02:57.137Z,58.09
2018-04-16T11:04:59.104Z,58.73
2018-04-16T11:07:01.045Z,60.66
2018-04-16T11:09:03.025Z,62.16
2018-04-16T11:11:04.949Z,62.48
2018-04-16T11:13:06.903Z,61.33
2018-04-16T11:15:08.668Z,60.97
2018-04-16T11:17:10.544Z,61.10
2018-04-16T11:19:12.465Z,60.55
2018-04-16T11:21:14.234Z,60.36
2018-04-16T11:23:16.238Z,59.62
2018-04-16T11:25:18.278Z,55.70
2018-04-16T11:27:20.498Z,58.01
2018-04-16T11:29:22.354Z,55.79
2018-04-16T11:31:24.225Z,54.93
2018-04-16T11:33:26.133Z,53.96
2018-04-16T11:35:27.991Z,54.03
2018-04-16T11:37:29.951Z,52.95
2018-04-16T11:39:31.947Z,54.78
2018-04-16T11:41:33.939Z,58.72
2018-04-16T11:43:35.975Z,61.25
2018-04-16T11:45:37.934Z,60.20
2018-04-16T11:47:39.760Z,59.84
2018-04-16T11:49:42.598Z,58.52
2018-04-16T11:51:44.484Z,59.20
2018-04-16T11:53:46.376Z,59.23
2018-04-16T11:55:48.229Z,57.87
2018-04-16T11:57:50.121Z,55.34
2018-04-16T11:59:52.027Z,57.27
2018-04-16T12:01:54.069Z,56.09
2018-04-16T12:03:56.124Z,55.48
2018-04-16T12:05:58.015Z,55.29
2018-04-16T12:08:00.020Z,58.65
2018-04-16T12:10:02.049Z,57.98
2018-04-16T12:12:04.155Z,57.12
2018-04-16T12:14:06.033Z,56.15
2018-04-16T12:16:07.922Z,56.05
2018-04-16T12:18:09.772Z,52.33
2018-04-16T12:20:12.642Z,50.85
2018-04-16T12:22:14.649Z,50.95
2018-04-16T12:24:16.484Z,52.23
2018-04-16T12:26:18.421Z,51.31
2018-04-16T12:28:20.305Z,51.31
2018-04-16T12:30:22.268Z,52.85
2018-04-16T12:32:24.131Z,51.12
2018-04-16T12:34:26.056Z,54.13
2018-04-16T12:36:27.968Z,53.96
2018-04-16T12:38:29.910Z,51.65
2018-04-16T12:40:31.836Z,51.07
2018-04-16T12:42:33.626Z,50.59
2018-04-16T12:44:35.786Z,49.51
2018-04-16T12:46:37.947Z,51.34
2018-04-16T12:48:39.829Z,50.95
2018-04-16T12:50:41.727Z,50.15
2018-04-16T12:52:43.589Z,51.34
2018-04-16T12:54:45.437Z,50.57
2018-04-16T12:56:47.340Z,50.18
2018-04-16T12:58:49.326Z,50.98
2018-04-16T13:00:51.229Z,50.27
2018-04-16T13:02:53.183Z,52.61
2018-04-16T13:04:54.854Z,48.76
2018-04-16T13:06:56.690Z,51.05
2018-04-16T13:08:58.591Z,51.72
2018-04-16T13:11:00.498Z,52.27
2018-04-16T13:13:02.382Z,53.81
2018-04-16T13:15:04.236Z,51.14
2018-04-16T13:17:06.079Z,50.76
2018-04-16T13:19:07.860Z,51.53
2018-04-16T13:21:09.836Z,50.98
2018-04-16T13:23:11.631Z,49.82
2018-04-16T13:25:13.555Z,49.84
2018-04-16T13:27:15.454Z,48.08
2018-04-16T13:29:17.375Z,49.05
2018-04-16T13:31:19.369Z,47.58
2018-04-16T13:33:21.199Z,47.58
2018-04-16T13:35:23.063Z,47.49
2018-04-16T13:37:25.027Z,48.43
2018-04-16T13:39:27.022Z,49.89
2018-04-16T13:41:28.773Z,49.51
2018-04-16T13:43:30.762Z,48.81
2018-04-16T13:45:32.707Z,48.90
2018-04-16T13:47:34.705Z,50.35
2018-04-16T13:49:36.517Z,48.33
2018-04-16T13:51:38.621Z,48.03
2018-04-16T13:53:40.534Z,47.39
2018-04-16T13:55:42.362Z,47.49
2018-04-16T13:57:44.475Z,47.49
2018-04-16T13:59:46.644Z,45.53
2018-04-16T14:01:48.437Z,45.83
2018-04-16T14:03:50.257Z,46.91
2018-04-16T14:05:52.172Z,44.49
2018-04-16T14:07:54.215Z,43.61
2018-04-16T14:09:56.126Z,44.55
2018-04-16T14:11:58.023Z,45.51
2018-04-16T14:13:59.975Z,47.75
2018-04-16T14:16:01.830Z,46.59
2018-04-16T14:18:03.675Z,47.49
2018-04-16T14:20:05.530Z,46.42
2018-04-16T14:22:07.528Z,44.52
2018-04-16T14:24:09.438Z,45.75
2018-04-16T14:26:11.346Z,47.77
2018-04-16T14:28:13.253Z,49.15
2018-04-16T14:30:15.230Z,48.86
2018-04-16T14:32:17.138Z,46.08
2018-04-16T14:34:19.151Z,46.15
2018-04-16T14:36:21.147Z,45.99
2018-04-16T14:38:23.062Z,46.28
2018-04-16T14:40:25.018Z,45.60
2018-04-16T14:42:27.050Z,46.47
2018-04-16T14:44:29.050Z,44.73
2018-04-16T14:46:30.930Z,44.25
2018-04-16T14:48:32.876Z,44.42
2018-04-16T14:50:34.898Z,44.81
2018-04-16T14:52:36.788Z,45.56
2018-04-16T14:54:38.667Z,47.97
2018-04-16T14:56:40.677Z,48.47
2018-04-16T14:58:42.431Z,46.95
2018-04-16T15:00:44.314Z,46.37
2018-04-16T15:02:46.561Z,45.53
2018-04-16T15:04:48.378Z,43.77
2018-04-16T15:06:50.264Z,43.46
2018-04-16T15:08:52.212Z,46.33
2018-04-16T15:10:54.103Z,43.44
2018-04-16T15:12:56.670Z,42.36
2018-04-16T15:14:58.628Z,42.74
2018-04-16T15:17:00.415Z,43.40
2018-04-16T15:19:02.377Z,44.45
2018-04-16T15:21:04.273Z,44.45
2018-04-16T15:23:06.213Z,44.65
2018-04-16T15:25:07.875Z,44.74
2018-04-16T15:27:09.767Z,44.26
2018-04-16T15:29:11.687Z,44.43
2018-04-16T15:31:13.677Z,45.80
2018-04-16T15:33:15.568Z,45.29
2018-04-16T15:35:17.523Z,46.45
2018-04-16T15:37:19.417Z,47.63
2018-04-16T15:39:21.285Z,48.21
2018-04-16T15:41:23.213Z,47.80
2018-04-16T15:43:25.061Z,49.82
2018-04-16T15:45:27.052Z,47.34
2018-04-16T15:47:29.148Z,47.08
2018-04-16T15:49:31.160Z,47.85
2018-04-16T15:51:33.180Z,46.11
2018-04-16T15:53:35.372Z,46.38
2018-04-16T15:55:37.489Z,47.70
2018-04-16T15:57:39.845Z,48.59
2018-04-16T15:59:41.791Z,48.30
2018-04-16T16:01:43.760Z,48.13
2018-04-16T16:03:45.752Z,46.69
2018-04-16T16:05:47.702Z,46.50
2018-04-16T16:07:49.794Z,47.36
2018-04-16T16:09:51.832Z,47.17
2018-04-16T16:11:53.742Z,46.14
2018-04-16T16:13:55.589Z,46.04
2018-04-16T16:15:57.662Z,45.15
2018-04-16T16:17:59.687Z,46.57
2018-04-16T16:20:01.722Z,48.43
2018-04-16T16:22:03.894Z,46.88
2018-04-16T16:24:05.789Z,46.69
2018-04-16T16:26:07.699Z,45.63
2018-04-16T16:28:09.647Z,45.63
2018-04-16T16:30:11.509Z,45.46
2018-04-16T16:32:13.313Z,44.98
2018-04-16T16:34:15.325Z,45.07
2018-04-16T16:36:17.238Z,44.69
2018-04-16T16:38:19.328Z,45.05
2018-04-16T16:40:21.354Z,47.44
2018-04-16T16:42:23.272Z,46.77
2018-04-16T16:44:25.130Z,46.84
2018-04-16T16:46:27.018Z,47.31
2018-04-16T16:48:28.889Z,46.84
2018-04-16T16:50:30.939Z,48.97
2018-04-16T16:52:32.997Z,47.53
2018-04-16T16:54:34.963Z,47.72
2018-04-16T16:56:36.842Z,47.70
2018-04-16T16:58:38.766Z,47.72
2018-04-16T17:00:40.525Z,48.11
2018-04-16T17:02:42.577Z,47.70
2018-04-16T17:04:44.594Z,48.97
2018-04-16T17:06:46.467Z,48.59
2018-04-16T17:09:35.002Z,47.70
2018-04-16T17:12:26.815Z,48.76
2018-04-16T17:15:13.181Z,49.02
2018-04-16T17:17:56.472Z,48.95
2018-04-16T17:19:57.959Z,49.24
2018-04-16T17:21:59.525Z,49.41
2018-04-16T17:24:01.047Z,49.41
2018-04-16T17:26:02.523Z,48.93
2018-04-16T17:28:04.188Z,49.41
2018-04-16T17:30:06.638Z,50.95
2018-04-16T17:32:08.354Z,49.12
2018-04-16T17:34:10.112Z,49.22
2018-04-16T17:36:12.575Z,50.76
2018-04-16T17:38:14.324Z,51.62
2018-04-16T17:40:16.265Z,50.18
2018-04-16T17:42:18.141Z,51.14
2018-04-16T17:44:19.897Z,50.27
2018-04-16T17:46:21.676Z,51.59
2018-04-16T17:48:23.818Z,51.40
2018-04-16T17:50:25.520Z,51.50
2018-04-16T17:52:27.252Z,50.54
2018-04-16T17:54:29.873Z,50.34
2018-04-16T17:56:31.861Z,51.50
2018-04-16T17:58:33.643Z,51.31
2018-04-16T18:00:35.414Z,51.11
2018-04-16T18:02:37.231Z,52.53
2018-04-16T18:04:38.994Z,52.55
2018-04-16T18:06:40.668Z,52.34
2018-04-16T18:08:42.440Z,52.55
2018-04-16T18:10:44.183Z,53.32
2018-04-16T18:12:45.967Z,52.26
2018-04-16T18:14:47.758Z,52.81
2018-04-16T18:16:49.634Z,53.11
2018-04-16T18:18:51.101Z,53.11
2018-04-16T18:20:52.883Z,52.91
2018-04-16T18:22:54.567Z,53.32
2018-04-16T18:24:56.389Z,54.09
2018-04-16T18:26:58.059Z,53.52
2018-04-16T18:28:59.880Z,53.20
2018-04-16T18:31:01.481Z,54.28
2018-04-16T18:33:03.273Z,54.35
2018-04-16T18:35:05.228Z,54.64
2018-04-16T18:37:07.024Z,53.23
2018-04-16T18:39:08.673Z,53.30
2018-04-16T18:41:10.218Z,53.49
2018-04-16T18:43:12.814Z,53.58
2018-04-16T18:45:15.286Z,53.78
2018-04-16T18:47:17.180Z,53.30
2018-04-16T18:49:19.253Z,53.58
2018-04-16T18:51:21.108Z,54.16
2018-04-16T18:53:23.025Z,54.35
2018-04-16T18:55:24.810Z,53.97
2018-04-16T18:57:26.730Z,53.97
2018-04-16T18:59:28.644Z,54.23
2018-04-16T19:01:30.656Z,53.94
2018-04-16T19:03:32.677Z,53.46
2018-04-16T19:05:34.501Z,54.23
2018-04-16T19:07:36.422Z,53.75
2018-04-16T19:09:38.133Z,54.23
2018-04-16T19:11:40.025Z,55.57
2018-04-16T19:13:41.829Z,55.77
2018-04-16T19:15:43.721Z,55.57
2018-04-16T19:17:45.488Z,55.74
2018-04-16T19:19:47.283Z,56.02
2018-04-16T19:21:49.333Z,56.12
2018-04-16T19:23:51.528Z,56.12
2018-04-16T19:25:53.535Z,56.02
2018-04-16T19:27:55.474Z,55.93
2018-04-16T19:29:57.646Z,56.31
2018-04-16T19:31:59.486Z,56.60
2018-04-16T19:34:01.484Z,56.41
2018-04-16T19:36:03.379Z,56.89
2018-04-16T19:38:05.277Z,57.28
2018-04-16T19:40:07.309Z,57.18
2018-04-16T19:42:09.408Z,57.08
2018-04-16T19:44:11.629Z,57.15
2018-04-16T19:46:13.447Z,57.56
2018-04-16T19:48:15.193Z,57.75
2018-04-16T19:50:17.071Z,57.82
2018-04-16T19:52:18.955Z,58.30
2018-04-16T19:54:21.269Z,59.36
2018-04-16T19:56:23.383Z,59.16
2018-04-16T19:58:25.173Z,59.45
2018-04-16T20:00:27.222Z,59.64
2018-04-16T20:02:29.097Z,60.41
2018-04-16T20:04:30.956Z,60.12
2018-04-16T20:06:32.826Z,60.22
2018-04-16T20:08:34.612Z,60.03
2018-04-16T20:10:36.524Z,60.60
2018-04-16T20:12:38.264Z,60.41
2018-04-16T20:14:40.056Z,60.60
2018-04-16T20:16:42.423Z,60.99
2018-04-16T20:18:44.290Z,60.79
2018-04-16T20:20:46.120Z,61.46
2018-04-16T20:22:48.051Z,61.37
2018-04-16T20:24:50.031Z,61.94
2018-04-16T20:26:51.753Z,61.85
2018-04-16T20:28:53.514Z,62.42
2018-04-16T20:30:55.289Z,62.20
2018-04-16T20:32:56.996Z,62.49
2018-04-16T20:34:58.963Z,62.59
2018-04-16T20:37:00.805Z,62.68
2018-04-16T20:39:02.677Z,63.16
2018-04-16T20:41:04.567Z,63.26
2018-04-16T20:43:06.363Z,63.16
2018-04-16T20:45:08.068Z,62.96
2018-04-16T20:47:09.916Z,63.64
2018-04-16T20:49:11.690Z,63.73
2018-04-16T20:51:13.869Z,63.26
2018-04-16T20:53:17.379Z,63.92
2018-04-16T20:55:19.128Z,64.12
2018-04-16T20:57:20.925Z,64.85
2018-04-16T20:59:22.766Z,64.47
2018-04-16T21:01:24.529Z,64.56
2018-04-16T21:03:26.286Z,64.85
2018-04-16T21:05:28.260Z,65.05
2018-04-16T21:07:30.150Z,64.66
2018-04-16T21:09:31.974Z,65.14
2018-04-16T21:11:33.753Z,65.33
2018-04-16T21:13:35.478Z,64.85
2018-04-16T21:15:37.305Z,65.71
2018-04-16T21:17:39.044Z,65.71
2018-04-16T21:19:40.883Z,65.58
2018-04-16T21:21:42.796Z,65.68
2018-04-16T21:23:44.540Z,66.06
2018-04-16T21:25:46.195Z,66.16
2018-04-16T21:27:47.914Z,66.83
2018-04-16T21:29:49.655Z,67.11
2018-04-16T21:31:51.294Z,67.31
2018-04-16T21:33:53.101Z,67.21
2018-04-16T21:35:54.949Z,67.02
2018-04-16T21:37:56.704Z,66.83
2018-04-16T21:39:58.612Z,67.21
2018-04-16T21:42:00.325Z,67.50
2018-04-16T21:44:02.040Z,67.50
2018-04-16T21:46:03.772Z,67.98
2018-04-16T21:48:05.559Z,68.04
2018-04-16T21:50:07.382Z,67.94
2018-04-16T21:52:08.918Z,67.76
2018-04-16T21:54:10.468Z,68.33
2018-04-16T21:56:12.096Z,68.04
2018-04-16T21:58:13.792Z,68.13
2018-04-16T22:00:15.587Z,68.33
2018-04-16T22:02:17.430Z,68.23
2018-04-16T22:04:19.119Z,68.23
2018-04-16T22:06:20.948Z,68.80
2018-04-16T22:08:22.627Z,68.52
2018-04-16T22:10:24.589Z,68.80
2018-04-16T22:12:26.507Z,69.09
2018-04-16T22:14:28.235Z,69.00
2018-04-16T22:16:30.038Z,68.71
2018-04-16T22:18:31.796Z,68.49
2018-04-16T22:20:33.496Z,68.77
2018-04-16T22:22:35.285Z,69.06
2018-04-16T22:24:36.831Z,69.64
2018-04-16T22:26:38.626Z,69.25
2018-04-16T22:28:40.385Z,68.87
2018-04-16T22:30:42.141Z,69.73
2018-04-16T22:32:43.818Z,70.01
2018-04-16T22:34:45.587Z,69.64
2018-04-16T22:36:47.441Z,69.92
2018-04-16T22:38:49.120Z,69.92
2018-04-16T22:40:50.841Z,70.11
2018-04-16T22:42:52.570Z,70.50
2018-04-16T22:44:54.435Z,70.50
2018-04-16T22:46:56.150Z,70.50
2018-04-16T22:48:58.028Z,70.56
2018-04-16T22:50:59.840Z,70.94
2018-04-16T22:53:01.754Z,70.75
2018-04-16T22:55:03.627Z,70.46
2018-04-16T22:57:05.318Z,70.36
2018-04-16T22:59:07.121Z,71.13
2018-04-16T23:01:08.779Z,70.75
2018-04-16T23:03:10.489Z,70.75
2018-04-16T23:05:12.403Z,70.94
2018-04-16T23:07:14.117Z,71.42
2018-04-16T23:09:15.881Z,71.03
2018-04-16T23:11:17.829Z,71.22
2018-04-16T23:13:19.507Z,71.42
2018-04-16T23:15:21.364Z,70.75
2018-04-16T23:17:23.095Z,71.61
2018-04-16T23:19:24.797Z,71.61
2018-04-16T23:21:26.513Z,71.22
2018-04-16T23:23:28.272Z,71.22
2018-04-16T23:25:30.115Z,71.42
2018-04-16T23:27:31.853Z,72.08
2018-04-16T23:29:33.717Z,72.18
2018-04-16T23:31:35.524Z,71.86
2018-04-16T23:33:37.289Z,72.33
2018-04-16T23:35:39.111Z,72.53
2018-04-16T23:37:40.812Z,72.81
2018-04-16T23:39:42.547Z,72.81
2018-04-16T23:41:44.276Z,72.81
2018-04-16T23:43:46.284Z,73.29
2018-04-16T23:45:47.873Z,73.19
2018-04-16T23:47:49.596Z,72.81
2018-04-16T23:49:51.365Z,72.72
2018-04-16T23:51:53.053Z,72.81
2018-04-16T23:53:54.730Z,73.19
2018-04-16T23:55:56.440Z,73.48
2018-04-16T23:57:58.240Z,73.39
